Time,TemperatureF,DewpointF,PressureIn,WindDirection,WindDirectionDegrees,WindSpeedMPH,WindSpeedGustMPH,Humidity,HourlyPrecipIn,Conditions,Clouds,dailyrainin,SoftwareType,DateUTC
2013-07-18 00:02:00,71.9,59.5,30.10,ENE,72,2.0,9.0,65,0.00,,,0.00,Wunderground v.1.15,2013-07-18 06:02:00,
2013-07-18 00:08:00,71.9,59.9,30.11,ESE,108,3.0,11.0,66,0.00,,,0.00,Wunderground v.1.15,2013-07-18 06:08:00,
2013-07-18 00:13:00,71.8,59.8,30.10,East,97,4.0,9.0,66,0.00,,,0.00,Wunderground v.1.15,2013-07-18 06:13:00,
2013-07-18 00:19:00,71.7,59.7,30.09,East,87,4.0,9.0,66,0.00,,,0.00,Wunderground v.1.15,2013-07-18 06:19:00,
2013-07-18 00:25:00,71.5,60.0,30.10,SSE,150,5.0,9.0,67,0.00,,,0.00,Wunderground v.1.15,2013-07-18 06:25:00,
2013-07-18 00:31:00,71.3,60.6,30.10,SE,132,4.0,7.0,69,0.00,,,0.00,Wunderground v.1.15,2013-07-18 06:31:00,
2013-07-18 00:36:00,71.0,61.5,30.10,East,83,3.0,7.0,72,0.00,,,0.00,Wunderground v.1.15,2013-07-18 06:36:00,
2013-07-18 00:42:00,70.3,62.4,30.10,East,98,1.0,1.0,76,0.00,,,0.01,Wunderground v.1.15,2013-07-18 06:42:00,
2013-07-18 00:48:00,69.4,62.6,30.10,ESE,123,0.0,1.0,79,0.08,,,0.02,Wunderground v.1.15,2013-07-18 06:48:00,
2013-07-18 00:54:00,68.3,62.6,30.10,SE,138,1.0,8.0,82,0.08,,,0.02,Wunderground v.1.15,2013-07-18 06:54:00,
2013-07-18 01:00:00,67.7,63.0,30.10,SE,134,1.0,3.0,85,0.07,,,0.03,Wunderground v.1.15,2013-07-18 07:00:00,
2013-07-18 01:06:00,67.1,62.8,30.10,ESE,115,2.0,5.0,86,0.21,,,0.05,Wunderground v.1.15,2013-07-18 07:06:00,
2013-07-18 01:12:00,66.4,62.4,30.10,East,81,3.0,3.0,87,1.14,,,0.14,Wunderground v.1.15,2013-07-18 07:12:00,
2013-07-18 01:18:00,65.7,62.0,30.10,East,87,2.0,5.0,88,0.91,,,0.22,Wunderground v.1.15,2013-07-18 07:18:00,
2013-07-18 01:24:00,65.3,62.0,30.10,East,92,1.0,2.0,89,0.52,,,0.27,Wunderground v.1.15,2013-07-18 07:24:00,
2013-07-18 01:29:00,65.0,61.7,30.09,East,92,0.0,2.0,89,0.28,,,0.30,Wunderground v.1.15,2013-07-18 07:29:00,
2013-07-18 01:35:00,64.9,61.9,30.09,East,92,0.0,0.0,90,0.07,,,0.30,Wunderground v.1.15,2013-07-18 07:35:00,
2013-07-18 01:41:00,64.7,61.7,30.09,East,92,0.0,0.0,90,0.04,,,0.30,Wunderground v.1.15,2013-07-18 07:41:00,
2013-07-18 01:47:00,64.6,61.6,30.09,East,92,0.0,0.0,90,0.00,,,0.30,Wunderground v.1.15,2013-07-18 07:47:00,
2013-07-18 01:53:00,64.6,61.6,30.09,East,92,0.0,0.0,90,0.00,,,0.30,Wunderground v.1.15,2013-07-18 07:53:00,
2013-07-18 01:58:00,64.7,62.0,30.09,East,92,0.0,0.0,91,0.00,,,0.30,Wunderground v.1.15,2013-07-18 07:58:00,
2013-07-18 02:04:00,64.9,62.2,30.09,East,92,0.0,0.0,91,0.00,,,0.30,Wunderground v.1.15,2013-07-18 08:04:00,
2013-07-18 02:10:00,65.0,62.6,30.09,East,92,0.0,0.0,92,0.00,,,0.30,Wunderground v.1.15,2013-07-18 08:10:00,
2013-07-18 02:15:00,65.1,62.7,30.08,East,92,0.0,0.0,92,0.00,,,0.30,Wunderground v.1.15,2013-07-18 08:15:00,
2013-07-18 02:21:00,65.2,62.8,30.08,East,92,0.0,0.0,92,0.00,,,0.30,Wunderground v.1.15,2013-07-18 08:21:00,
2013-07-18 02:27:00,65.4,63.0,30.08,East,92,0.0,0.0,92,0.00,,,0.30,Wunderground v.1.15,2013-07-18 08:27:00,
2013-07-18 02:33:00,65.4,63.0,30.08,East,92,0.0,0.0,92,0.00,,,0.30,Wunderground v.1.15,2013-07-18 08:33:00,
2013-07-18 02:39:00,65.2,62.5,30.08,ENE,61,0.0,0.0,91,0.00,,,0.30,Wunderground v.1.15,2013-07-18 08:39:00,
2013-07-18 02:44:00,65.2,62.5,30.08,ENE,61,0.0,0.0,91,0.00,,,0.30,Wunderground v.1.15,2013-07-18 08:44:00,
2013-07-18 02:50:00,65.2,62.5,30.08,ENE,61,0.0,0.0,91,0.00,,,0.30,Wunderground v.1.15,2013-07-18 08:50:00,
2013-07-18 02:56:00,65.2,62.5,30.07,ENE,61,0.0,0.0,91,0.00,,,0.31,Wunderground v.1.15,2013-07-18 08:56:00,
2013-07-18 03:02:00,65.2,62.5,30.07,ENE,61,0.0,0.0,91,0.00,,,0.31,Wunderground v.1.15,2013-07-18 09:02:00,
2013-07-18 03:07:00,65.3,62.6,30.07,ENE,61,0.0,0.0,91,0.00,,,0.31,Wunderground v.1.15,2013-07-18 09:07:00,
2013-07-18 03:13:00,65.3,62.6,30.07,ENE,61,0.0,0.0,91,0.00,,,0.31,Wunderground v.1.15,2013-07-18 09:13:00,
2013-07-18 03:19:00,65.2,62.5,30.07,ENE,61,0.0,0.0,91,0.00,,,0.31,Wunderground v.1.15,2013-07-18 09:19:00,
2013-07-18 03:25:00,65.2,62.5,30.07,ENE,61,0.0,0.0,91,0.00,,,0.31,Wunderground v.1.15,2013-07-18 09:25:00,
2013-07-18 03:30:00,65.1,62.4,30.07,ENE,61,0.0,0.0,91,0.00,,,0.31,Wunderground v.1.15,2013-07-18 09:30:00,
2013-07-18 03:36:00,65.2,62.8,30.08,ENE,61,0.0,0.0,92,0.00,,,0.31,Wunderground v.1.15,2013-07-18 09:36:00,
2013-07-18 03:42:00,65.2,62.8,30.08,ENE,61,0.0,0.0,92,0.00,,,0.31,Wunderground v.1.15,2013-07-18 09:42:00,
2013-07-18 03:48:00,65.2,62.5,30.08,ENE,61,0.0,0.0,91,0.00,,,0.31,Wunderground v.1.15,2013-07-18 09:48:00,
2013-07-18 03:54:00,65.2,62.8,30.08,ENE,61,0.0,2.0,92,0.00,,,0.31,Wunderground v.1.15,2013-07-18 09:54:00,
2013-07-18 03:59:00,65.2,62.8,30.08,WNW,300,0.0,2.0,92,0.00,,,0.31,Wunderground v.1.15,2013-07-18 09:59:00,
2013-07-18 04:05:00,65.3,62.9,30.08,WNW,300,0.0,0.0,92,0.00,,,0.31,Wunderground v.1.15,2013-07-18 10:05:00,
2013-07-18 04:11:00,65.2,62.8,30.08,WNW,300,0.0,0.0,92,0.00,,,0.32,Wunderground v.1.15,2013-07-18 10:11:00,
2013-07-18 04:17:00,65.3,62.9,30.07,WNW,300,0.0,0.0,92,0.00,,,0.32,Wunderground v.1.15,2013-07-18 10:17:00,
2013-07-18 04:23:00,65.2,63.1,30.07,WNW,300,0.0,0.0,93,0.00,,,0.32,Wunderground v.1.15,2013-07-18 10:23:00,
2013-07-18 04:28:00,65.2,63.1,30.07,WNW,300,0.0,0.0,93,0.00,,,0.32,Wunderground v.1.15,2013-07-18 10:28:00,
2013-07-18 04:34:00,65.2,63.1,30.07,WNW,300,0.0,0.0,93,0.00,,,0.32,Wunderground v.1.15,2013-07-18 10:34:00,
2013-07-18 04:40:00,65.1,63.0,30.07,WNW,300,0.0,0.0,93,0.00,,,0.32,Wunderground v.1.15,2013-07-18 10:40:00,
2013-07-18 04:46:00,65.1,63.0,30.06,WNW,300,0.0,0.0,93,0.00,,,0.32,Wunderground v.1.15,2013-07-18 10:46:00,
2013-07-18 04:52:00,65.1,63.0,30.06,WNW,300,0.0,0.0,93,0.00,,,0.32,Wunderground v.1.15,2013-07-18 10:52:00,
2013-07-18 04:58:00,65.1,63.0,30.06,WNW,300,0.0,0.0,93,0.00,,,0.32,Wunderground v.1.15,2013-07-18 10:58:00,
2013-07-18 05:04:00,65.2,63.1,30.06,WNW,300,0.0,0.0,93,0.00,,,0.32,Wunderground v.1.15,2013-07-18 11:04:00,
2013-07-18 05:10:00,65.2,63.1,30.06,WNW,300,0.0,0.0,93,0.00,,,0.32,Wunderground v.1.15,2013-07-18 11:10:00,
2013-07-18 05:15:00,65.2,63.4,30.06,WNW,300,0.0,0.0,94,0.00,,,0.32,Wunderground v.1.15,2013-07-18 11:15:00,
2013-07-18 05:21:00,65.2,63.4,30.06,WNW,300,0.0,0.0,94,0.00,,,0.32,Wunderground v.1.15,2013-07-18 11:21:00,
2013-07-18 05:27:00,65.3,63.5,30.06,WNW,300,0.0,0.0,94,0.00,,,0.32,Wunderground v.1.15,2013-07-18 11:27:00,
2013-07-18 05:33:00,65.3,63.5,30.06,WNW,300,0.0,0.0,94,0.00,,,0.32,Wunderground v.1.15,2013-07-18 11:33:00,
2013-07-18 05:38:00,65.3,63.5,30.06,WNW,300,0.0,0.0,94,0.00,,,0.32,Wunderground v.1.15,2013-07-18 11:38:00,
2013-07-18 05:44:00,65.3,63.5,30.06,WNW,300,0.0,0.0,94,0.00,,,0.32,Wunderground v.1.15,2013-07-18 11:44:00,
2013-07-18 05:50:00,65.3,63.5,30.06,WNW,300,0.0,0.0,94,0.00,,,0.32,Wunderground v.1.15,2013-07-18 11:50:00,
2013-07-18 05:56:00,65.4,63.6,30.06,WNW,300,0.0,0.0,94,0.00,,,0.32,Wunderground v.1.15,2013-07-18 11:56:00,
2013-07-18 06:01:00,65.4,63.6,30.06,WNW,300,0.0,0.0,94,0.00,,,0.32,Wunderground v.1.15,2013-07-18 12:01:00,
2013-07-18 06:07:00,65.5,63.7,30.06,WNW,300,0.0,0.0,94,0.00,,,0.33,Wunderground v.1.15,2013-07-18 12:07:00,
2013-07-18 06:13:00,65.6,63.8,30.06,WNW,300,0.0,0.0,94,0.00,,,0.33,Wunderground v.1.15,2013-07-18 12:13:00,
2013-07-18 06:19:00,65.7,63.9,30.06,WNW,300,0.0,0.0,94,0.00,,,0.33,Wunderground v.1.15,2013-07-18 12:19:00,
2013-07-18 06:25:00,65.7,63.9,30.07,WNW,300,0.0,2.0,94,0.00,,,0.33,Wunderground v.1.15,2013-07-18 12:25:00,
2013-07-18 06:30:00,65.7,63.9,30.06,WNW,300,0.0,0.0,94,0.00,,,0.33,Wunderground v.1.15,2013-07-18 12:30:00,
2013-07-18 06:36:00,65.7,63.9,30.06,WNW,300,0.0,0.0,94,0.00,,,0.33,Wunderground v.1.15,2013-07-18 12:36:00,
2013-07-18 06:42:00,65.7,63.9,30.06,WNW,300,0.0,0.0,94,0.00,,,0.33,Wunderground v.1.15,2013-07-18 12:42:00,
2013-07-18 06:48:00,65.8,64.0,30.06,WNW,300,0.0,0.0,94,0.00,,,0.33,Wunderground v.1.15,2013-07-18 12:48:00,
2013-07-18 06:53:00,65.8,64.0,30.06,WNW,300,0.0,0.0,94,0.00,,,0.33,Wunderground v.1.15,2013-07-18 12:53:00,
2013-07-18 06:59:00,65.8,64.0,30.06,WNW,300,0.0,0.0,94,0.00,,,0.33,Wunderground v.1.15,2013-07-18 12:59:00,
2013-07-18 07:05:00,65.8,64.0,30.06,WNW,300,0.0,0.0,94,0.00,,,0.33,Wunderground v.1.15,2013-07-18 13:05:00,
2013-07-18 07:11:00,65.8,64.0,30.07,WNW,300,0.0,2.0,94,0.00,,,0.33,Wunderground v.1.15,2013-07-18 13:11:00,
2013-07-18 07:17:00,65.8,64.0,30.07,WNW,300,0.0,2.0,94,0.00,,,0.33,Wunderground v.1.15,2013-07-18 13:17:00,
2013-07-18 07:22:00,65.9,64.1,30.07,WNW,300,0.0,0.0,94,0.00,,,0.33,Wunderground v.1.15,2013-07-18 13:22:00,
2013-07-18 07:28:00,65.8,64.0,30.08,WNW,300,0.0,0.0,94,0.00,,,0.33,Wunderground v.1.15,2013-07-18 13:28:00,
2013-07-18 07:34:00,65.9,64.4,30.07,WNW,300,0.0,0.0,95,0.00,,,0.33,Wunderground v.1.15,2013-07-18 13:34:00,
2013-07-18 07:39:00,66.0,64.5,30.08,WNW,300,0.0,0.0,95,0.00,,,0.33,Wunderground v.1.15,2013-07-18 13:39:00,
2013-07-18 07:45:00,66.0,64.2,30.08,WNW,300,0.0,0.0,94,0.00,,,0.33,Wunderground v.1.15,2013-07-18 13:45:00,
2013-07-18 07:51:00,66.0,64.2,30.08,WNW,300,0.0,0.0,94,0.00,,,0.34,Wunderground v.1.15,2013-07-18 13:51:00,
2013-07-18 07:57:00,66.1,64.6,30.09,WNW,300,0.0,0.0,95,0.20,,,0.36,Wunderground v.1.15,2013-07-18 13:57:00,
2013-07-18 08:03:00,66.0,64.2,30.09,WNW,300,0.0,0.0,94,0.08,,,0.36,Wunderground v.1.15,2013-07-18 14:03:00,
2013-07-18 08:08:00,65.9,64.1,30.09,WNW,300,0.0,0.0,94,0.05,,,0.36,Wunderground v.1.15,2013-07-18 14:08:00,
2013-07-18 08:14:00,65.8,64.0,30.09,WNW,300,0.0,0.0,94,0.00,,,0.36,Wunderground v.1.15,2013-07-18 14:14:00,
2013-07-18 08:20:00,65.8,64.0,30.09,WNW,300,0.0,0.0,94,0.00,,,0.36,Wunderground v.1.15,2013-07-18 14:20:00,
2013-07-18 08:26:00,65.7,63.9,30.09,WNW,300,0.0,3.0,94,0.00,,,0.36,Wunderground v.1.15,2013-07-18 14:26:00,
2013-07-18 08:31:00,65.7,63.9,30.09,West,263,1.0,6.0,94,0.00,,,0.36,Wunderground v.1.15,2013-07-18 14:31:00,
2013-07-18 08:37:00,65.7,63.9,30.10,West,269,1.0,6.0,94,0.00,,,0.36,Wunderground v.1.15,2013-07-18 14:37:00,
2013-07-18 08:43:00,65.7,63.9,30.10,NW,309,0.0,1.0,94,0.00,,,0.36,Wunderground v.1.15,2013-07-18 14:43:00,
2013-07-18 08:49:00,65.8,64.0,30.09,NW,309,0.0,1.0,94,0.00,,,0.37,Wunderground v.1.15,2013-07-18 14:49:00,
2013-07-18 08:55:00,65.9,64.1,30.09,NW,309,0.0,0.0,94,0.00,,,0.37,Wunderground v.1.15,2013-07-18 14:55:00,
2013-07-18 09:00:00,66.0,64.2,30.10,NW,309,0.0,0.0,94,0.00,,,0.37,Wunderground v.1.15,2013-07-18 15:00:00,
2013-07-18 09:06:00,66.0,64.2,30.10,NW,309,0.0,0.0,94,0.00,,,0.37,Wunderground v.1.15,2013-07-18 15:06:00,
2013-07-18 09:12:00,66.1,64.3,30.10,NW,309,0.0,0.0,94,0.00,,,0.37,Wunderground v.1.15,2013-07-18 15:12:00,
2013-07-18 09:18:00,66.3,64.5,30.10,NW,309,0.0,0.0,94,0.00,,,0.37,Wunderground v.1.15,2013-07-18 15:18:00,
2013-07-18 09:23:00,66.5,64.7,30.10,NW,306,0.0,3.0,94,0.00,,,0.37,Wunderground v.1.15,2013-07-18 15:23:00,
2013-07-18 09:29:00,66.5,64.7,30.10,NW,306,1.0,3.0,94,0.00,,,0.37,Wunderground v.1.15,2013-07-18 15:29:00,
2013-07-18 09:35:00,66.6,64.8,30.10,NW,306,0.0,1.0,94,0.00,,,0.37,Wunderground v.1.15,2013-07-18 15:35:00,
2013-07-18 09:41:00,66.6,64.8,30.10,NW,306,0.0,0.0,94,0.00,,,0.37,Wunderground v.1.15,2013-07-18 15:41:00,
2013-07-18 09:46:00,66.6,64.8,30.10,NW,306,0.0,0.0,94,0.00,,,0.37,Wunderground v.1.15,2013-07-18 15:46:00,
2013-07-18 09:52:00,66.7,64.9,30.10,NW,306,0.0,0.0,94,0.00,,,0.37,Wunderground v.1.15,2013-07-18 15:52:00,
2013-07-18 09:58:00,66.8,65.0,30.10,NW,306,0.0,0.0,94,0.00,,,0.38,Wunderground v.1.15,2013-07-18 15:58:00,
2013-07-18 10:04:00,66.9,65.1,30.10,NW,304,1.0,2.0,94,0.00,,,0.38,Wunderground v.1.15,2013-07-18 16:04:00,
2013-07-18 10:10:00,66.7,64.9,30.10,NW,304,0.0,0.0,94,0.00,,,0.38,Wunderground v.1.15,2013-07-18 16:10:00,
2013-07-18 10:15:00,66.5,64.7,30.10,NW,304,0.0,0.0,94,0.00,,,0.38,Wunderground v.1.15,2013-07-18 16:15:00,
2013-07-18 10:21:00,66.5,64.7,30.10,NW,304,0.0,0.0,94,0.12,,,0.40,Wunderground v.1.15,2013-07-18 16:21:00,
2013-07-18 10:27:00,66.5,64.7,30.10,NW,304,0.0,0.0,94,0.10,,,0.40,Wunderground v.1.15,2013-07-18 16:27:00,
2013-07-18 10:33:00,66.5,64.7,30.10,NW,304,0.0,0.0,94,0.05,,,0.40,Wunderground v.1.15,2013-07-18 16:33:00,
2013-07-18 10:39:00,66.6,64.8,30.10,NW,304,0.0,0.0,94,0.00,,,0.40,Wunderground v.1.15,2013-07-18 16:39:00,
2013-07-18 10:44:00,66.7,64.9,30.10,NW,304,0.0,0.0,94,0.00,,,0.40,Wunderground v.1.15,2013-07-18 16:44:00,
2013-07-18 10:50:00,66.9,65.1,30.10,NW,304,0.0,0.0,94,0.00,,,0.40,Wunderground v.1.15,2013-07-18 16:50:00,
2013-07-18 10:51:00,66.9,65.1,30.10,NW,304,0.0,0.0,94,0.00,,,0.40,Wunderground v.1.15,2013-07-18 16:51:00,
2013-07-18 10:57:00,66.9,65.1,30.10,NW,304,0.0,0.0,94,0.00,,,0.40,Wunderground v.1.15,2013-07-18 16:57:00,
2013-07-18 11:03:00,66.9,65.1,30.10,NW,304,0.0,0.0,94,0.00,,,0.40,Wunderground v.1.15,2013-07-18 17:03:00,
2013-07-18 11:08:00,66.8,65.0,30.10,NW,304,0.0,0.0,94,0.00,,,0.40,Wunderground v.1.15,2013-07-18 17:08:00,
2013-07-18 11:14:00,66.7,64.6,30.10,NW,304,0.0,2.0,93,0.00,,,0.40,Wunderground v.1.15,2013-07-18 17:14:00,
2013-07-18 11:20:00,67.0,64.9,30.09,NW,304,0.0,0.0,93,0.00,,,0.40,Wunderground v.1.15,2013-07-18 17:20:00,
2013-07-18 11:26:00,67.2,65.1,30.10,NW,304,0.0,0.0,93,0.00,,,0.40,Wunderground v.1.15,2013-07-18 17:26:00,
2013-07-18 11:32:00,67.3,65.2,30.09,NW,304,0.0,0.0,93,0.00,,,0.40,Wunderground v.1.15,2013-07-18 17:32:00,
2013-07-18 11:38:00,67.6,65.5,30.09,NW,304,0.0,0.0,93,0.00,,,0.40,Wunderground v.1.15,2013-07-18 17:38:00,
2013-07-18 11:44:00,67.7,65.3,30.09,NW,304,0.0,0.0,92,0.00,,,0.40,Wunderground v.1.15,2013-07-18 17:44:00,
2013-07-18 11:50:00,67.8,65.4,30.09,NW,304,0.0,0.0,92,0.00,,,0.40,Wunderground v.1.15,2013-07-18 17:50:00,
2013-07-18 11:56:00,68.1,65.4,30.09,NW,304,0.0,3.0,91,0.00,,,0.40,Wunderground v.1.15,2013-07-18 17:56:00,
2013-07-18 12:02:00,68.3,65.6,30.08,NW,304,0.0,0.0,91,0.00,,,0.40,Wunderground v.1.15,2013-07-18 18:02:00,
2013-07-18 12:08:00,68.4,65.7,30.09,NW,304,0.0,0.0,91,0.00,,,0.40,Wunderground v.1.15,2013-07-18 18:08:00,
2013-07-18 12:13:00,68.4,65.4,30.09,NW,304,0.0,0.0,90,0.00,,,0.40,Wunderground v.1.15,2013-07-18 18:13:00,
2013-07-18 12:19:00,68.5,65.4,30.09,NW,304,0.0,0.0,90,0.00,,,0.40,Wunderground v.1.15,2013-07-18 18:19:00,
2013-07-18 12:20:00,68.6,65.2,30.09,NW,304,0.0,0.0,89,0.00,,,0.40,Wunderground v.1.15,2013-07-18 18:20:00,
2013-07-18 12:26:00,68.7,65.3,30.09,NW,304,0.0,0.0,89,0.00,,,0.40,Wunderground v.1.15,2013-07-18 18:26:00,
2013-07-18 12:31:00,68.8,65.4,30.09,NW,304,0.0,0.0,89,0.00,,,0.40,Wunderground v.1.15,2013-07-18 18:31:00,
2013-07-18 12:37:00,69.0,65.9,30.09,NW,304,0.0,0.0,90,0.00,,,0.40,Wunderground v.1.15,2013-07-18 18:37:00,
2013-07-18 12:42:00,69.0,65.6,30.09,NW,304,0.0,0.0,89,0.00,,,0.40,Wunderground v.1.15,2013-07-18 18:42:00,
2013-07-18 12:48:00,69.2,65.5,30.08,NW,304,0.0,0.0,88,0.00,,,0.40,Wunderground v.1.15,2013-07-18 18:48:00,
2013-07-18 12:54:00,69.5,65.8,30.08,NW,304,0.0,0.0,88,0.00,,,0.40,Wunderground v.1.15,2013-07-18 18:54:00,
2013-07-18 13:00:00,69.8,65.8,30.08,NW,304,0.0,0.0,87,0.00,,,0.40,Wunderground v.1.15,2013-07-18 19:00:00,
2013-07-18 13:05:00,70.1,65.4,30.08,NW,304,0.0,0.0,85,0.00,,,0.40,Wunderground v.1.15,2013-07-18 19:05:00,
2013-07-18 13:11:00,70.5,65.8,30.08,NW,304,0.0,0.0,85,0.00,,,0.40,Wunderground v.1.15,2013-07-18 19:11:00,
2013-07-18 13:17:00,70.9,65.5,30.08,NW,304,0.0,0.0,83,0.00,,,0.40,Wunderground v.1.15,2013-07-18 19:17:00,
2013-07-18 13:23:00,71.3,65.5,30.07,NW,304,0.0,0.0,82,0.00,,,0.40,Wunderground v.1.15,2013-07-18 19:23:00,
2013-07-18 13:28:00,71.7,65.6,30.07,NW,304,0.0,0.0,81,0.00,,,0.40,Wunderground v.1.15,2013-07-18 19:28:00,
2013-07-18 13:34:00,72.0,65.5,30.07,NW,304,0.0,0.0,80,0.00,,,0.40,Wunderground v.1.15,2013-07-18 19:34:00,
2013-07-18 13:40:00,72.4,64.8,30.07,NW,326,0.0,0.0,77,0.00,,,0.40,Wunderground v.1.15,2013-07-18 19:40:00,
2013-07-18 13:45:00,72.6,65.0,30.07,NW,326,0.0,2.0,77,0.00,,,0.40,Wunderground v.1.15,2013-07-18 19:45:00,
2013-07-18 13:51:00,72.8,64.8,30.07,NW,326,0.0,0.0,76,0.00,,,0.40,Wunderground v.1.15,2013-07-18 19:51:00,
2013-07-18 13:57:00,73.1,65.1,30.07,NW,326,0.0,0.0,76,0.00,,,0.40,Wunderground v.1.15,2013-07-18 19:57:00,
2013-07-18 14:03:00,73.3,64.5,30.07,SE,135,1.0,6.0,74,0.00,,,0.40,Wunderground v.1.15,2013-07-18 20:03:00,
2013-07-18 14:09:00,73.6,65.2,30.06,SE,126,1.0,6.0,75,0.00,,,0.40,Wunderground v.1.15,2013-07-18 20:09:00,
2013-07-18 14:14:00,73.9,65.1,30.06,East,100,0.0,1.0,74,0.00,,,0.40,Wunderground v.1.15,2013-07-18 20:14:00,
2013-07-18 14:20:00,74.3,65.1,30.06,East,80,0.0,0.0,73,0.00,,,0.40,Wunderground v.1.15,2013-07-18 20:20:00,
2013-07-18 14:26:00,74.7,65.1,30.06,ENE,63,1.0,1.0,72,0.00,,,0.40,Wunderground v.1.15,2013-07-18 20:26:00,
2013-07-18 14:31:00,74.7,64.3,30.06,SSE,157,1.0,2.0,70,0.00,,,0.40,Wunderground v.1.15,2013-07-18 20:31:00,
2013-07-18 14:37:00,74.9,65.3,30.06,ENE,61,1.0,2.0,72,0.00,,,0.40,Wunderground v.1.15,2013-07-18 20:37:00,
2013-07-18 14:42:00,75.2,64.3,30.05,ENE,76,0.0,1.0,69,0.00,,,0.40,Wunderground v.1.15,2013-07-18 20:42:00,
2013-07-18 14:48:00,75.5,65.0,30.05,ENE,71,0.0,1.0,70,0.00,,,0.40,Wunderground v.1.15,2013-07-18 20:48:00,
2013-07-18 14:54:00,75.7,64.0,30.05,NE,47,0.0,0.0,67,0.00,,,0.40,Wunderground v.1.15,2013-07-18 20:54:00,
2013-07-18 14:59:00,75.6,64.3,30.04,NE,51,0.0,3.0,68,0.00,,,0.40,Wunderground v.1.15,2013-07-18 20:59:00,
2013-07-18 15:05:00,75.7,64.4,30.05,ENE,66,1.0,2.0,68,0.00,,,0.40,Wunderground v.1.15,2013-07-18 21:05:00,
2013-07-18 15:10:00,75.6,64.3,30.04,ESE,105,1.0,1.0,68,0.00,,,0.40,Wunderground v.1.15,2013-07-18 21:10:00,
2013-07-18 15:16:00,75.7,64.4,30.04,East,86,0.0,1.0,68,0.00,,,0.40,Wunderground v.1.15,2013-07-18 21:16:00,
2013-07-18 15:21:00,75.9,65.0,30.03,ESE,104,0.0,0.0,69,0.00,,,0.40,Wunderground v.1.15,2013-07-18 21:21:00,
2013-07-18 15:27:00,76.3,65.0,30.04,East,100,0.0,0.0,68,0.00,,,0.40,Wunderground v.1.15,2013-07-18 21:27:00,
2013-07-18 15:33:00,76.5,64.7,30.04,East,101,0.0,1.0,67,0.00,,,0.40,Wunderground v.1.15,2013-07-18 21:33:00,
2013-07-18 15:38:00,76.6,65.2,30.04,SE,133,1.0,1.0,68,0.00,,,0.40,Wunderground v.1.15,2013-07-18 21:38:00,
2013-07-18 15:43:00,76.7,64.9,30.04,East,97,1.0,2.0,67,0.00,,,0.40,Wunderground v.1.15,2013-07-18 21:43:00,
2013-07-18 15:48:00,76.6,65.2,30.03,SSE,167,1.0,2.0,68,0.00,,,0.40,Wunderground v.1.15,2013-07-18 21:48:00,
2013-07-18 15:54:00,76.8,65.9,30.03,East,83,1.0,2.0,69,0.00,,,0.40,Wunderground v.1.15,2013-07-18 21:54:00,
2013-07-18 16:00:00,76.5,64.3,30.03,ESE,103,1.0,1.0,66,0.00,,,0.40,Wunderground v.1.15,2013-07-18 22:00:00,
2013-07-18 16:05:00,76.0,64.2,30.03,East,84,2.0,2.0,67,0.00,,,0.40,Wunderground v.1.15,2013-07-18 22:05:00,
2013-07-18 16:10:00,75.7,64.8,30.03,SE,128,1.0,1.0,69,0.00,,,0.40,Wunderground v.1.15,2013-07-18 22:10:00,
2013-07-18 16:16:00,75.3,64.8,30.03,East,81,1.0,2.0,70,0.00,,,0.40,Wunderground v.1.15,2013-07-18 22:16:00,
2013-07-18 16:22:00,74.8,64.8,30.03,ENE,70,1.0,1.0,71,0.00,,,0.40,Wunderground v.1.15,2013-07-18 22:22:00,
2013-07-18 16:27:00,74.6,65.0,30.03,East,85,0.0,1.0,72,0.00,,,0.40,Wunderground v.1.15,2013-07-18 22:27:00,
2013-07-18 16:33:00,74.4,66.0,30.03,East,82,0.0,1.0,75,0.00,,,0.40,Wunderground v.1.15,2013-07-18 22:33:00,
2013-07-18 16:38:00,74.2,65.0,30.03,NE,44,0.0,3.0,73,0.00,,,0.40,Wunderground v.1.15,2013-07-18 22:38:00,
2013-07-18 16:44:00,73.7,64.5,30.03,East,91,1.0,1.0,73,0.00,,,0.40,Wunderground v.1.15,2013-07-18 22:44:00,
2013-07-18 16:49:00,73.2,64.4,30.03,East,94,0.0,1.0,74,0.00,,,0.40,Wunderground v.1.15,2013-07-18 22:49:00,
2013-07-18 16:54:00,72.6,64.6,30.03,ESE,123,0.0,1.0,76,0.00,,,0.41,Wunderground v.1.15,2013-07-18 22:54:00,
2013-07-18 17:00:00,71.9,65.4,30.03,ESE,106,0.0,0.0,80,0.00,,,0.41,Wunderground v.1.15,2013-07-18 23:00:00,
2013-07-18 17:06:00,71.3,65.5,30.03,SE,136,0.0,1.0,82,0.00,,,0.41,Wunderground v.1.15,2013-07-18 23:06:00,
2013-07-18 17:12:00,70.8,65.7,30.03,SE,130,0.0,1.0,84,0.04,,,0.42,Wunderground v.1.15,2013-07-18 23:12:00,
2013-07-18 17:18:00,70.3,65.6,30.03,SE,133,0.0,1.0,85,0.04,,,0.42,Wunderground v.1.15,2013-07-18 23:18:00,
2013-07-18 17:23:00,70.0,66.0,30.03,SE,133,0.0,0.0,87,0.06,,,0.43,Wunderground v.1.15,2013-07-18 23:23:00,
2013-07-18 17:29:00,69.6,65.9,30.03,SE,133,0.0,0.0,88,0.07,,,0.44,Wunderground v.1.15,2013-07-18 23:29:00,
2013-07-18 17:35:00,69.4,65.7,30.03,SE,133,0.0,0.0,88,0.07,,,0.44,Wunderground v.1.15,2013-07-18 23:35:00,
2013-07-18 17:41:00,69.3,65.9,30.03,SE,133,0.0,0.0,89,0.04,,,0.44,Wunderground v.1.15,2013-07-18 23:41:00,
2013-07-18 17:46:00,69.2,66.1,30.03,SE,133,0.0,0.0,90,0.00,,,0.44,Wunderground v.1.15,2013-07-18 23:46:00,
2013-07-18 17:52:00,69.3,66.2,30.03,SE,133,0.0,0.0,90,0.00,,,0.45,Wunderground v.1.15,2013-07-18 23:52:00,
2013-07-18 17:58:00,69.3,66.2,30.03,SSE,157,0.0,2.0,90,0.00,,,0.45,Wunderground v.1.15,2013-07-18 23:58:00,
2013-07-18 18:04:00,69.2,66.1,30.03,SSE,160,0.0,1.0,90,0.05,,,0.46,Wunderground v.1.15,2013-07-19 00:04:00,
2013-07-18 18:10:00,69.2,66.5,30.03,SSE,163,0.0,0.0,91,0.13,,,0.47,Wunderground v.1.15,2013-07-19 00:10:00,
2013-07-18 18:16:00,69.2,66.5,30.03,SSE,163,0.0,1.0,91,0.06,,,0.47,Wunderground v.1.15,2013-07-19 00:16:00,
2013-07-18 18:21:00,69.2,66.8,30.03,SSE,163,0.0,0.0,92,0.04,,,0.47,Wunderground v.1.15,2013-07-19 00:21:00,
2013-07-18 18:27:00,69.2,66.8,30.03,SSE,163,0.0,0.0,92,0.00,,,0.47,Wunderground v.1.15,2013-07-19 00:27:00,
2013-07-18 18:32:00,69.2,66.8,30.03,SSE,163,0.0,0.0,92,0.00,,,0.47,Wunderground v.1.15,2013-07-19 00:32:00,
2013-07-18 18:37:00,69.3,66.9,30.02,SSE,163,0.0,0.0,92,0.00,,,0.47,Wunderground v.1.15,2013-07-19 00:37:00,
2013-07-18 18:43:00,69.3,66.9,30.03,SSE,163,0.0,0.0,92,0.00,,,0.47,Wunderground v.1.15,2013-07-19 00:43:00,
2013-07-18 18:49:00,69.3,67.2,30.02,SSE,163,0.0,0.0,93,0.00,,,0.47,Wunderground v.1.15,2013-07-19 00:49:00,
2013-07-18 18:54:00,69.4,67.3,30.02,SSE,163,0.0,0.0,93,0.00,,,0.47,Wunderground v.1.15,2013-07-19 00:54:00,
2013-07-18 19:00:00,69.5,67.4,30.02,SSE,163,0.0,0.0,93,0.00,,,0.47,Wunderground v.1.15,2013-07-19 01:00:00,
2013-07-18 19:06:00,69.7,67.6,30.02,SSE,163,0.0,0.0,93,0.00,,,0.47,Wunderground v.1.15,2013-07-19 01:06:00,
2013-07-18 19:12:00,69.7,67.6,30.02,SSE,163,0.0,0.0,93,0.00,,,0.47,Wunderground v.1.15,2013-07-19 01:12:00,
2013-07-18 19:17:00,69.7,67.6,30.01,SSE,163,0.0,0.0,93,0.00,,,0.47,Wunderground v.1.15,2013-07-19 01:17:00,
2013-07-18 19:23:00,69.8,67.7,30.01,SSE,163,0.0,0.0,93,0.00,,,0.47,Wunderground v.1.15,2013-07-19 01:23:00,
2013-07-18 19:29:00,69.8,67.4,30.00,SSE,163,0.0,0.0,92,0.00,,,0.47,Wunderground v.1.15,2013-07-19 01:29:00,
2013-07-18 19:35:00,70.0,67.6,30.01,SSE,163,0.0,0.0,92,0.00,,,0.47,Wunderground v.1.15,2013-07-19 01:35:00,
2013-07-18 19:40:00,70.1,67.7,30.00,SSE,163,0.0,0.0,92,0.00,,,0.47,Wunderground v.1.15,2013-07-19 01:40:00,
2013-07-18 19:46:00,70.1,67.3,30.00,SSE,163,0.0,0.0,91,0.00,,,0.47,Wunderground v.1.15,2013-07-19 01:46:00,
2013-07-18 19:52:00,70.2,67.8,30.00,SSE,163,0.0,0.0,92,0.00,,,0.47,Wunderground v.1.15,2013-07-19 01:52:00,
2013-07-18 19:58:00,70.1,67.7,30.00,SSE,163,0.0,0.0,92,0.00,,,0.47,Wunderground v.1.15,2013-07-19 01:58:00,
2013-07-18 20:04:00,70.1,67.3,30.00,SSE,163,0.0,0.0,91,0.00,,,0.47,Wunderground v.1.15,2013-07-19 02:04:00,
2013-07-18 20:09:00,70.0,67.3,30.00,SSE,163,0.0,0.0,91,0.00,,,0.47,Wunderground v.1.15,2013-07-19 02:09:00,
2013-07-18 20:15:00,69.9,67.2,30.00,SSE,163,0.0,0.0,91,0.00,,,0.47,Wunderground v.1.15,2013-07-19 02:15:00,
2013-07-18 20:21:00,69.9,67.2,30.01,SSE,160,0.0,0.0,91,0.00,,,0.47,Wunderground v.1.15,2013-07-19 02:21:00,
2013-07-18 20:27:00,69.8,67.1,30.01,SSE,149,0.0,0.0,91,0.00,,,0.47,Wunderground v.1.15,2013-07-19 02:27:00,
2013-07-18 20:33:00,69.7,66.6,30.01,ESE,111,0.0,0.0,90,0.00,,,0.47,Wunderground v.1.15,2013-07-19 02:33:00,
2013-07-18 20:39:00,69.6,65.9,30.01,ESE,111,1.0,3.0,88,0.00,,,0.47,Wunderground v.1.15,2013-07-19 02:39:00,
2013-07-18 20:45:00,69.6,65.6,30.01,ESE,106,1.0,2.0,87,0.00,,,0.47,Wunderground v.1.15,2013-07-19 02:45:00,
2013-07-18 20:51:00,69.6,65.6,30.02,ESE,115,1.0,4.0,87,0.00,,,0.47,Wunderground v.1.15,2013-07-19 02:51:00,
2013-07-18 20:56:00,69.6,65.6,30.02,ENE,76,1.0,4.0,87,0.00,,,0.47,Wunderground v.1.15,2013-07-19 02:56:00,
2013-07-18 21:02:00,69.7,65.7,30.02,ESE,120,1.0,1.0,87,0.00,,,0.47,Wunderground v.1.15,2013-07-19 03:02:00,
2013-07-18 21:08:00,69.8,65.8,30.02,ESE,113,1.0,4.0,87,0.00,,,0.47,Wunderground v.1.15,2013-07-19 03:08:00,
2013-07-18 21:14:00,69.8,65.8,30.03,East,94,1.0,2.0,87,0.00,,,0.47,Wunderground v.1.15,2013-07-19 03:14:00,
2013-07-18 21:20:00,69.7,65.7,30.03,ESE,121,1.0,1.0,87,0.00,,,0.47,Wunderground v.1.15,2013-07-19 03:20:00,
2013-07-18 21:25:00,69.7,66.0,30.03,ESE,121,0.0,1.0,88,0.00,,,0.47,Wunderground v.1.15,2013-07-19 03:25:00,
2013-07-18 21:31:00,69.6,65.9,30.03,ESE,121,0.0,0.0,88,0.00,,,0.47,Wunderground v.1.15,2013-07-19 03:31:00,
2013-07-18 21:37:00,69.6,65.9,30.04,ESE,121,0.0,0.0,88,0.00,,,0.47,Wunderground v.1.15,2013-07-19 03:37:00,
2013-07-18 21:43:00,69.6,65.9,30.04,ESE,121,0.0,0.0,88,0.00,,,0.47,Wunderground v.1.15,2013-07-19 03:43:00,
2013-07-18 21:48:00,69.5,65.8,30.04,ESE,121,0.0,0.0,88,0.00,,,0.47,Wunderground v.1.15,2013-07-19 03:48:00,
2013-07-18 21:53:00,69.5,65.8,30.04,ESE,121,0.0,0.0,88,0.00,,,0.47,Wunderground v.1.15,2013-07-19 03:53:00,
2013-07-18 21:59:00,69.5,65.8,30.04,ESE,121,0.0,0.0,88,0.00,,,0.47,Wunderground v.1.15,2013-07-19 03:59:00,
2013-07-18 22:01:00,69.5,65.8,30.05,ESE,121,0.0,0.0,88,0.00,,,0.47,Wunderground v.1.15,2013-07-19 04:01:00,
2013-07-18 22:02:00,69.5,65.8,30.05,ESE,121,0.0,0.0,88,0.00,,,0.47,Wunderground v.1.15,2013-07-19 04:02:00,
2013-07-18 22:03:00,69.5,65.8,30.05,ESE,121,0.0,0.0,88,0.00,,,0.47,Wunderground v.1.15,2013-07-19 04:03:00,
2013-07-18 22:06:00,69.5,65.8,30.05,ESE,121,0.0,0.0,88,0.00,,,0.47,Wunderground v.1.15,2013-07-19 04:06:00,
2013-07-18 22:08:00,69.5,65.8,30.05,ESE,121,0.0,0.0,88,0.00,,,0.47,Wunderground v.1.15,2013-07-19 04:08:00,
2013-07-18 22:14:00,69.5,65.8,30.05,ESE,121,0.0,0.0,88,0.00,,,0.47,Wunderground v.1.15,2013-07-19 04:14:00,
2013-07-18 22:19:00,69.4,65.7,30.05,ESE,121,0.0,0.0,88,0.00,,,0.47,Wunderground v.1.15,2013-07-19 04:19:00,
2013-07-18 22:25:00,69.4,65.7,30.05,ESE,121,0.0,0.0,88,0.00,,,0.47,Wunderground v.1.15,2013-07-19 04:25:00,
2013-07-18 22:31:00,69.4,65.7,30.05,ESE,121,0.0,0.0,88,0.00,,,0.47,Wunderground v.1.15,2013-07-19 04:31:00,
2013-07-18 22:37:00,69.5,65.8,30.06,ESE,121,0.0,0.0,88,0.00,,,0.47,Wunderground v.1.15,2013-07-19 04:37:00,
2013-07-18 22:43:00,69.5,65.8,30.06,ESE,121,0.0,0.0,88,0.00,,,0.47,Wunderground v.1.15,2013-07-19 04:43:00,
2013-07-18 22:48:00,69.5,65.8,30.06,ESE,121,0.0,0.0,88,0.00,,,0.47,Wunderground v.1.15,2013-07-19 04:48:00,
2013-07-18 22:54:00,69.5,65.8,30.06,ESE,121,0.0,0.0,88,0.00,,,0.47,Wunderground v.1.15,2013-07-19 04:54:00,
2013-07-18 22:59:00,69.5,65.5,30.06,ESE,121,0.0,0.0,87,0.00,,,0.47,Wunderground v.1.15,2013-07-19 04:59:00,
2013-07-18 23:05:00,69.5,65.5,30.06,ESE,121,0.0,1.0,87,0.00,,,0.47,Wunderground v.1.15,2013-07-19 05:05:00,
2013-07-18 23:11:00,69.6,64.9,30.06,ENE,60,0.0,2.0,85,0.00,,,0.47,Wunderground v.1.15,2013-07-19 05:11:00,
2013-07-18 23:17:00,69.7,64.6,30.06,ENE,60,0.0,2.0,84,0.00,,,0.47,Wunderground v.1.15,2013-07-19 05:17:00,
2013-07-18 23:22:00,69.9,64.5,30.06,ENE,78,0.0,1.0,83,0.00,,,0.47,Wunderground v.1.15,2013-07-19 05:22:00,
2013-07-18 23:28:00,70.1,64.3,30.06,ENE,76,0.0,1.0,82,0.00,,,0.47,Wunderground v.1.15,2013-07-19 05:28:00,
2013-07-18 23:34:00,70.2,64.4,30.06,ESE,113,0.0,2.0,82,0.00,,,0.47,Wunderground v.1.15,2013-07-19 05:34:00,
2013-07-18 23:40:00,70.4,64.3,30.06,East,80,1.0,1.0,81,0.00,,,0.47,Wunderground v.1.15,2013-07-19 05:40:00,
2013-07-18 23:45:00,70.4,64.3,30.06,East,79,1.0,2.0,81,0.00,,,0.47,Wunderground v.1.15,2013-07-19 05:45:00,
2013-07-18 23:51:00,70.6,64.5,30.07,ENE,59,0.0,1.0,81,0.00,,,0.47,Wunderground v.1.15,2013-07-19 05:51:00,
2013-07-18 23:57:00,70.5,64.4,30.07,ENE,59,0.0,1.0,81,0.00,,,0.47,Wunderground v.1.15,2013-07-19 05:57:00,